Decoded Metar for ETNT (WITTMUNDHAFEN in GERMANY) (IATA:N/A) | Meteo·Mobile Aviation Weather
aviador You're here:

ETNT Decoded Metar

WITTMUNDHAFEN in GERMANY
Report Time2018-08-22 05:20:00
UTC Time2018-08-22 05:37:25
Flight Rules vfr VFR
Wind130° at 02 kt
W.Decomp.*RWY 08: 1.3 kt HW 1.5 kt RCW
W.Rank130° ranks 28
Current wind is below 130° avg. (5.8)
Visibility9999 m
Phenomena:N/A
Clouds:Few 380 Hf
Expected CloudBase > 1,200 ft AGL from Temp-Dew spread
CeilingNone
Temp16°C (ISA +1)
Dew Point13°C (83% RH)
QNH1018 hPa
Density Alt197 ft
Elevation39 ft
Report Wrong Elevation
Raw Report
METAR ETNT 220520Z 13002KT 9999 FEW380 16/13 Q1018 BLU+=

Extra information for ETNT:More info

Metar Taf Metar & Taf Last 4 Metars F.Rules Stats Wind Profile Meteogram Temp Stats Airport Information Weather charts Add Link Nearby VenuesMetar ALERT Operation Metar Decoded Social comments